Aviation Digital Data Service (ADDS)

Output produced by METARs form (1425 UTC 26 January 2015)
found at http://aviationweather.gov/adds/metars/
 
KMHT 261120Z 2612/2712 02005KT P6SM SCT120 OVC200 
     FM262100 04007KT 4SM -SN BKN025 OVC040 
     FM270200 01012G20KT 2SM -SN OVC012 
     FM270500 01016G25KT 1/2SM SN OVC007